This is the latest recevied weather packets stored in our database for station/object WX3I. If no packets are shown the sender has not sent any weather packets the latest 10 day(s).
| Time | Temp. | Humidity | Pressure | Rain* | Wind** | Luminosity | Snow |
|---|---|---|---|---|---|---|---|
| 1778062504 | 17.78° C | 76% | 1010.8 hPa | 0 mm | - | 12 W/m² | - |
| 1778060704 | 17.78° C | 76% | 1010.8 hPa | 0 mm | - | 0 W/m² | - |
| 1778058304 | 18.33° C | 74% | 1010.8 hPa | 0 mm | - | 0 W/m² | - |
| 1778057704 | 18.33° C | 73% | 1010.9 hPa | 0 mm | - | 0 W/m² | - |
| 1778055004 | 18.89° C | 70% | 1011 hPa | 0 mm | - | 0 W/m² | - |
| 1778052004 | 18.89° C | 69% | 1011.3 hPa | 0 mm | - | 0 W/m² | - |
| 1778050505 | 19.44° C | 68% | 1011.5 hPa | 0 mm | - | 0 W/m² | - |
| 1778044804 | 19.44° C | 64% | 1012.1 hPa | 0 mm | - | 0 W/m² | - |
| 1778042104 | 19.44° C | 62% | 1012.2 hPa | 0 mm | - | 0 W/m² | - |
| 1778039104 | 20° C | 61% | 1012.1 hPa | 0 mm | - | 0 W/m² | - |
| 1778038204 | 20° C | 60% | 1012 hPa | 0 mm | - | 0 W/m² | - |
| 1778036404 | 20.56° C | 57% | 1012 hPa | 0 mm | - | 0 W/m² | - |
| 1778035204 | 21.11° C | 53% | 1012.1 hPa | 0 mm | - | 0 W/m² | - |
| 1778034604 | 21.67° C | 52% | 1012.1 hPa | 0 mm | - | 0 W/m² | - |
| 1778032504 | 22.22° C | 49% | 1012 hPa | 0 mm | - | 0 W/m² | - |
| 1778028304 | 23.33° C | 44% | 1011.4 hPa | 0 mm | - | 0 W/m² | - |
| 1778027104 | 23.89° C | 43% | 1011.2 hPa | 0 mm | - | 0 W/m² | - |
| 1778026804 | 23.89° C | 43% | 1011.1 hPa | 0 mm | - | 0 W/m² | - |
| 1778023804 | 24.44° C | 40% | 1010.8 hPa | 0 mm | - | 67 W/m² | - |
| 1778023504 | 24.44° C | 41% | 1010.8 hPa | 0 mm | - | 83 W/m² | - |
| 1778021105 | 25° C | 37% | 1010.6 hPa | 0 mm | - | 277 W/m² | - |
| 1778020805 | 25° C | 38% | 1010.7 hPa | 0 mm | - | 281 W/m² | - |
| 1778019304 | 25.56° C | 36% | 1010.5 hPa | 0 mm | - | 397 W/m² | - |
| 1778016904 | 26.11° C | 36% | 1010.3 hPa | 0 mm | - | 553 W/m² | - |
| 1778012104 | 26.11° C | 34% | 1010.3 hPa | 0 mm | - | 862 W/m² | - |
* Rain latest hour (hover to see other rain measurements)
** Current wind speed in m/s (hover to see current wind gust speed)